createdAt,value
2022-12-16T00:01:41.280Z,6.07
2022-12-16T00:04:08.849Z,6.45
2022-12-16T00:06:36.053Z,6.08
2022-12-16T00:09:03.526Z,6.29
2022-12-16T00:11:32.468Z,6.68
2022-12-16T00:13:59.782Z,6.55
2022-12-16T00:16:26.962Z,6.71
2022-12-16T00:18:54.386Z,5.77
2022-12-16T00:21:21.935Z,5.35
2022-12-16T00:23:49.251Z,6.58
2022-12-16T00:26:16.662Z,6.55
2022-12-16T00:28:43.998Z,6.22
2022-12-16T00:31:11.547Z,5.71
2022-12-16T00:33:39.068Z,5.71
2022-12-16T00:36:06.688Z,5.97
2022-12-16T00:38:33.865Z,6.67
2022-12-16T00:41:01.397Z,6.83
2022-12-16T00:43:28.535Z,6.36
2022-12-16T00:45:55.756Z,6.93
2022-12-16T00:48:23.889Z,7.19
2022-12-16T00:50:52.237Z,6.38
2022-12-16T00:53:20.370Z,6.63
2022-12-16T00:55:47.976Z,6.94
2022-12-16T00:58:15.176Z,6.35
2022-12-16T01:00:42.429Z,6.72
2022-12-16T01:03:10.088Z,6.35
2022-12-16T01:05:38.027Z,6.98
2022-12-16T01:08:05.707Z,6.41
2022-12-16T01:10:33.160Z,6.53
2022-12-16T01:13:00.525Z,5.82
2022-12-16T01:15:27.703Z,6.36
2022-12-16T01:17:55.369Z,6.26
2022-12-16T01:20:22.816Z,6.57
2022-12-16T01:22:49.944Z,6.21
2022-12-16T01:25:17.923Z,5.91
2022-12-16T01:27:45.043Z,6.15
2022-12-16T01:30:12.412Z,5.97
2022-12-16T01:32:39.932Z,5.87
2022-12-16T01:35:18.139Z,6.22
2022-12-16T01:37:54.635Z,6.12
2022-12-16T01:40:22.963Z,6.30
2022-12-16T01:42:50.121Z,5.96
2022-12-16T01:45:31.180Z,5.87
2022-12-16T01:47:59.531Z,5.94
2022-12-16T01:50:27.008Z,5.30
2022-12-16T01:52:55.463Z,5.83
2022-12-16T01:55:26.920Z,6.28
2022-12-16T01:58:14.397Z,5.84
2022-12-16T02:00:41.684Z,5.22
2022-12-16T02:03:09.736Z,5.28
2022-12-16T02:05:39.286Z,5.37
2022-12-16T02:08:06.405Z,4.47
2022-12-16T02:10:39.807Z,5.09
2022-12-16T02:13:19.778Z,5.19
2022-12-16T02:16:02.153Z,5.50
2022-12-16T02:18:33.945Z,5.45
2022-12-16T02:21:39.559Z,5.32
2022-12-16T02:24:13.613Z,5.27
2022-12-16T02:26:56.825Z,5.38
2022-12-16T02:29:38.120Z,4.97
2022-12-16T02:32:08.312Z,4.96
2022-12-16T02:34:44.290Z,4.96
2022-12-16T02:37:16.780Z,5.28
2022-12-16T02:39:56.226Z,5.13
2022-12-16T02:42:35.609Z,5.55
2022-12-16T02:45:04.154Z,5.61
2022-12-16T02:47:31.723Z,5.34
2022-12-16T02:49:58.911Z,5.03
2022-12-16T02:52:27.659Z,5.52
2022-12-16T02:54:56.409Z,5.48
2022-12-16T02:57:29.647Z,5.42
2022-12-16T03:00:03.574Z,5.54
2022-12-16T03:02:53.873Z,5.99
2022-12-16T03:05:31.735Z,5.71
2022-12-16T03:08:00.302Z,5.18
2022-12-16T03:10:32.050Z,5.90
2022-12-16T03:12:59.550Z,5.89
2022-12-16T03:15:27.046Z,5.77
2022-12-16T03:17:54.590Z,5.23
2022-12-16T03:20:23.675Z,5.36
2022-12-16T03:22:50.938Z,5.23
2022-12-16T03:25:18.676Z,4.92
2022-12-16T03:27:53.813Z,4.71
2022-12-16T03:30:23.233Z,5.18
2022-12-16T03:32:57.059Z,5.19
2022-12-16T03:35:30.688Z,4.38
2022-12-16T03:37:57.815Z,4.62
2022-12-16T03:40:25.595Z,5.17
2022-12-16T03:42:52.993Z,5.11
2022-12-16T03:45:22.424Z,5.38
2022-12-16T03:47:53.118Z,5.22
2022-12-16T03:50:21.577Z,5.17
2022-12-16T03:52:48.749Z,5.31
2022-12-16T03:55:16.201Z,5.62
2022-12-16T03:57:43.363Z,4.97
2022-12-16T04:00:10.759Z,5.35
2022-12-16T04:02:39.162Z,5.53
2022-12-16T04:05:06.895Z,5.86
2022-12-16T04:07:34.076Z,5.36
2022-12-16T04:10:01.265Z,5.73
2022-12-16T04:12:47.555Z,5.94
2022-12-16T04:15:38.310Z,6.03
2022-12-16T04:18:25.161Z,5.28
2022-12-16T04:21:12.083Z,5.50
2022-12-16T04:24:07.924Z,5.09
2022-12-16T04:26:55.137Z,5.16
2022-12-16T04:29:22.524Z,5.65
2022-12-16T04:31:50.055Z,5.81
2022-12-16T04:34:26.175Z,6.00
2022-12-16T04:37:12.712Z,6.16
2022-12-16T04:39:58.379Z,6.65
2022-12-16T04:42:44.588Z,6.82
2022-12-16T04:45:30.559Z,5.65
2022-12-16T04:48:16.540Z,5.70
2022-12-16T04:51:02.954Z,6.06
2022-12-16T04:53:48.892Z,5.79
2022-12-16T04:56:34.669Z,5.21
2022-12-16T04:59:20.895Z,5.78
2022-12-16T05:02:06.899Z,5.34
2022-12-16T05:04:52.933Z,5.69
2022-12-16T05:07:38.962Z,6.45
2022-12-16T05:10:25.538Z,5.32
2022-12-16T05:13:12.103Z,5.52
2022-12-16T05:15:58.676Z,5.54
2022-12-16T05:18:44.436Z,5.34
2022-12-16T05:21:30.507Z,6.33
2022-12-16T05:24:16.197Z,6.75
2022-12-16T05:27:02.508Z,5.67
2022-12-16T05:29:48.323Z,6.35
2022-12-16T05:32:34.200Z,5.17
2022-12-16T05:35:20.002Z,5.90
2022-12-16T05:38:06.371Z,5.99
2022-12-16T05:40:51.951Z,5.99
2022-12-16T05:43:38.293Z,6.69
2022-12-16T05:46:24.372Z,5.90
2022-12-16T05:49:10.607Z,6.56
2022-12-16T05:51:56.731Z,7.46
2022-12-16T05:54:56.896Z,5.77
2022-12-16T05:57:42.706Z,5.98
2022-12-16T06:00:29.363Z,5.35
2022-12-16T06:03:15.641Z,6.19
2022-12-16T06:06:01.514Z,6.40
2022-12-16T06:08:47.757Z,6.35
2022-12-16T06:11:33.581Z,6.99
2022-12-16T06:14:19.728Z,6.60
2022-12-16T06:17:05.570Z,6.21
2022-12-16T06:19:52.053Z,6.16
2022-12-16T06:22:37.973Z,6.98
2022-12-16T06:25:24.094Z,6.83
2022-12-16T06:28:10.639Z,6.56
2022-12-16T06:30:56.916Z,6.67
2022-12-16T06:33:42.801Z,6.81
2022-12-16T06:36:29.000Z,7.65
2022-12-16T06:39:15.108Z,7.39
2022-12-16T06:42:00.980Z,6.70
2022-12-16T06:44:47.033Z,7.10
2022-12-16T06:47:33.290Z,7.08
2022-12-16T06:50:19.003Z,7.11
2022-12-16T06:53:05.220Z,6.36
2022-12-16T06:55:51.014Z,7.42
2022-12-16T06:58:37.401Z,6.95
2022-12-16T07:01:23.323Z,7.51
2022-12-16T07:04:09.438Z,8.04
2022-12-16T07:06:55.156Z,7.71
2022-12-16T07:09:41.018Z,7.28
2022-12-16T07:12:26.654Z,7.14
2022-12-16T07:15:13.158Z,7.11
2022-12-16T07:17:59.285Z,7.70
2022-12-16T07:20:45.763Z,7.49
2022-12-16T07:23:31.625Z,8.01
2022-12-16T07:26:18.067Z,6.46
2022-12-16T07:29:03.693Z,6.92
2022-12-16T07:31:49.704Z,7.39
2022-12-16T07:34:40.691Z,7.08
2022-12-16T07:37:27.865Z,7.29
2022-12-16T07:40:13.650Z,7.34
2022-12-16T07:42:59.954Z,8.22
2022-12-16T07:45:45.759Z,7.46
2022-12-16T07:48:31.602Z,7.92
2022-12-16T07:51:17.376Z,8.20
2022-12-16T07:54:03.375Z,7.27
2022-12-16T07:56:49.018Z,7.16
2022-12-16T07:59:35.095Z,8.26
2022-12-16T08:02:20.979Z,8.03
2022-12-16T08:05:07.148Z,7.96
2022-12-16T08:07:52.840Z,8.19
2022-12-16T08:10:38.760Z,8.51
2022-12-16T08:13:26.013Z,8.15
2022-12-16T08:16:12.212Z,7.82
2022-12-16T08:18:57.751Z,7.94
2022-12-16T08:21:44.170Z,6.59
2022-12-16T08:24:29.818Z,6.84
2022-12-16T08:27:16.029Z,7.39
2022-12-16T08:30:01.806Z,7.67
2022-12-16T08:32:48.600Z,7.51
2022-12-16T08:35:34.288Z,8.38
2022-12-16T08:38:20.555Z,8.45
2022-12-16T08:41:06.079Z,8.29
2022-12-16T08:43:53.423Z,9.18
2022-12-16T08:46:40.697Z,9.39
2022-12-16T08:49:26.921Z,9.49
2022-12-16T08:52:12.796Z,9.32
2022-12-16T08:54:59.111Z,9.69
2022-12-16T08:57:44.727Z,9.79
2022-12-16T09:00:31.929Z,9.61
2022-12-16T09:03:17.883Z,9.89
2022-12-16T09:06:04.168Z,10.19
2022-12-16T09:08:50.232Z,10.03
2022-12-16T09:11:36.460Z,10.63
2022-12-16T09:14:22.821Z,10.91
2022-12-16T09:17:09.185Z,11.07
2022-12-16T09:19:55.320Z,11.11
2022-12-16T09:22:41.711Z,11.37
2022-12-16T09:25:27.796Z,11.46
2022-12-16T09:28:13.881Z,11.60
2022-12-16T09:30:59.910Z,11.71
2022-12-16T09:33:46.274Z,11.94
2022-12-16T09:36:31.962Z,11.88
2022-12-16T09:39:18.213Z,12.17
2022-12-16T09:42:05.088Z,12.19
2022-12-16T09:44:54.268Z,12.12
2022-12-16T09:47:39.952Z,11.52
2022-12-16T09:50:28.727Z,11.64
2022-12-16T09:53:17.437Z,12.09
2022-12-16T09:56:03.585Z,12.16
2022-12-16T09:58:51.013Z,11.92
2022-12-16T10:01:37.461Z,12.13
2022-12-16T10:04:24.168Z,12.16
2022-12-16T10:07:14.486Z,12.35
2022-12-16T10:10:00.747Z,12.00
2022-12-16T10:12:46.376Z,12.12
2022-12-16T10:15:35.592Z,11.85
2022-12-16T10:18:21.987Z,11.96
2022-12-16T10:21:10.013Z,11.87
2022-12-16T10:24:02.577Z,12.05
2022-12-16T10:27:04.274Z,11.95
2022-12-16T10:29:50.211Z,11.78
2022-12-16T10:33:00.534Z,11.91
2022-12-16T10:36:03.110Z,11.93
2022-12-16T10:38:49.299Z,12.13
2022-12-16T10:41:35.229Z,12.09
2022-12-16T10:44:21.603Z,11.92
2022-12-16T10:47:07.584Z,12.02
2022-12-16T10:49:55.043Z,11.61
2022-12-16T10:52:41.231Z,12.08
2022-12-16T10:55:39.864Z,12.28
2022-12-16T10:58:37.278Z,12.17
2022-12-16T11:01:39.996Z,12.08
2022-12-16T11:04:46.147Z,11.97
2022-12-16T11:07:47.877Z,11.76
2022-12-16T11:10:49.004Z,11.61
2022-12-16T11:13:42.212Z,11.64
2022-12-16T11:16:31.306Z,11.86
2022-12-16T11:19:17.593Z,11.89
2022-12-16T11:22:03.598Z,11.97
2022-12-16T11:24:50.517Z,11.88
2022-12-16T11:27:39.272Z,12.06
2022-12-16T11:30:36.285Z,12.11
2022-12-16T11:33:31.504Z,11.93
2022-12-16T11:36:24.585Z,11.62
2022-12-16T11:39:10.506Z,11.68
2022-12-16T11:42:00.303Z,10.86
2022-12-16T11:44:50.775Z,11.30
2022-12-16T11:47:46.500Z,11.53
2022-12-16T11:50:32.895Z,11.31
2022-12-16T11:53:19.066Z,11.39
2022-12-16T11:56:11.186Z,11.55
2022-12-16T11:59:05.312Z,11.55
2022-12-16T12:01:51.302Z,11.23
2022-12-16T12:04:37.752Z,11.27
2022-12-16T12:07:23.465Z,10.82
2022-12-16T12:10:22.004Z,11.05
2022-12-16T12:13:08.867Z,11.36
2022-12-16T12:15:56.537Z,11.54
2022-12-16T12:18:51.683Z,11.35
2022-12-16T12:21:46.447Z,11.39
2022-12-16T12:24:56.199Z,11.35
2022-12-16T12:27:47.505Z,11.49
2022-12-16T12:30:34.646Z,11.80
2022-12-16T12:33:39.613Z,11.82
2022-12-16T12:36:38.381Z,11.31
2022-12-16T12:39:44.867Z,11.36
2022-12-16T12:42:49.713Z,11.72
2022-12-16T12:45:47.484Z,11.50
2022-12-16T12:48:49.841Z,11.99
2022-12-16T12:51:52.768Z,11.99
2022-12-16T12:54:46.495Z,12.00
2022-12-16T12:57:32.687Z,11.82
2022-12-16T13:00:25.725Z,12.00
2022-12-16T13:03:27.275Z,11.96
2022-12-16T13:06:12.969Z,12.00
2022-12-16T13:09:08.429Z,11.48
2022-12-16T13:11:54.663Z,11.64
2022-12-16T13:14:50.440Z,11.96
2022-12-16T13:17:40.769Z,11.68
2022-12-16T13:21:06.706Z,11.42
2022-12-16T13:23:55.948Z,11.98
2022-12-16T13:26:42.583Z,12.08
2022-12-16T13:29:31.802Z,12.08
2022-12-16T13:32:18.776Z,11.70
2022-12-16T13:35:21.603Z,11.85
2022-12-16T13:38:30.381Z,11.99
2022-12-16T13:41:20.045Z,11.98
2022-12-16T13:44:14.910Z,11.47
2022-12-16T13:47:10.652Z,11.69
2022-12-16T13:50:07.289Z,11.76
2022-12-16T13:52:59.465Z,11.70
2022-12-16T13:55:54.255Z,12.03
2022-12-16T13:58:49.264Z,11.92
2022-12-16T14:01:35.587Z,11.86
2022-12-16T14:04:42.026Z,11.47
2022-12-16T14:07:27.714Z,12.00
2022-12-16T14:10:13.741Z,11.58
2022-12-16T14:13:04.354Z,11.64
2022-12-16T14:15:53.172Z,11.57
2022-12-16T14:18:44.815Z,11.38
2022-12-16T14:21:32.201Z,11.78
2022-12-16T14:24:19.595Z,11.96
2022-12-16T14:27:05.790Z,11.82
2022-12-16T14:29:51.584Z,11.66
2022-12-16T14:32:48.328Z,11.69
2022-12-16T14:35:38.872Z,11.52
2022-12-16T14:38:31.737Z,12.16
2022-12-16T14:41:17.781Z,12.20
2022-12-16T14:44:04.148Z,12.24
2022-12-16T14:46:50.636Z,12.10
2022-12-16T14:49:46.815Z,12.19
2022-12-16T14:52:39.144Z,12.22
2022-12-16T14:55:31.720Z,12.09
2022-12-16T14:58:36.957Z,12.28
2022-12-16T15:01:42.043Z,11.95
2022-12-16T15:04:31.991Z,11.78
2022-12-16T15:07:18.236Z,12.09
2022-12-16T15:10:04.796Z,12.21
2022-12-16T15:12:51.809Z,12.06
2022-12-16T15:15:54.701Z,11.95
2022-12-16T15:18:45.458Z,11.97
2022-12-16T15:21:31.277Z,11.57
2022-12-16T15:24:17.679Z,11.57
2022-12-16T15:27:03.454Z,11.11
2022-12-16T15:29:56.221Z,11.11
2022-12-16T15:32:45.120Z,10.63
2022-12-16T15:35:50.217Z,10.21
2022-12-16T15:38:51.830Z,10.31
2022-12-16T15:41:50.536Z,10.44
2022-12-16T15:44:36.768Z,10.26
2022-12-16T15:47:22.885Z,10.34
2022-12-16T15:50:09.155Z,10.44
2022-12-16T15:52:57.018Z,10.36
2022-12-16T15:55:42.627Z,10.20
2022-12-16T15:58:32.833Z,10.09
2022-12-16T16:01:18.818Z,9.96
2022-12-16T16:04:12.790Z,9.88
2022-12-16T16:07:09.459Z,10.14
2022-12-16T16:09:56.256Z,10.25
2022-12-16T16:12:42.929Z,10.18
2022-12-16T16:15:30.168Z,10.66
2022-12-16T16:18:19.918Z,10.59
2022-12-16T16:21:06.411Z,10.35
2022-12-16T16:23:52.307Z,10.69
2022-12-16T16:26:39.271Z,10.61
2022-12-16T16:29:25.258Z,10.55
2022-12-16T16:32:11.404Z,10.35
2022-12-16T16:34:57.572Z,10.54
2022-12-16T16:37:44.191Z,10.05
2022-12-16T16:40:35.196Z,10.29
2022-12-16T16:43:21.524Z,10.45
2022-12-16T16:46:15.404Z,10.46
2022-12-16T16:49:01.643Z,10.62
2022-12-16T16:51:47.620Z,10.75
2022-12-16T16:54:33.769Z,10.77
2022-12-16T16:57:19.746Z,10.51
2022-12-16T17:00:06.144Z,10.70
2022-12-16T17:02:52.360Z,10.51
2022-12-16T17:05:39.178Z,10.76
2022-12-16T17:08:25.087Z,9.34
2022-12-16T17:11:11.394Z,9.77
2022-12-16T17:13:57.118Z,9.84
2022-12-16T17:16:43.223Z,10.20
2022-12-16T17:19:28.998Z,9.71
2022-12-16T17:22:15.360Z,9.21
2022-12-16T17:25:01.006Z,9.21
2022-12-16T17:27:47.264Z,8.98
2022-12-16T17:30:47.460Z,9.36
2022-12-16T17:33:37.544Z,9.86
2022-12-16T17:36:28.528Z,10.00
2022-12-16T17:39:17.533Z,10.03
2022-12-16T17:42:04.074Z,8.63
2022-12-16T17:44:50.334Z,9.57
2022-12-16T17:47:36.114Z,8.93
2022-12-16T17:50:22.726Z,9.51
2022-12-16T17:53:12.369Z,9.20
2022-12-16T17:55:58.637Z,9.69
2022-12-16T17:58:48.283Z,9.74
2022-12-16T18:01:34.805Z,8.98
2022-12-16T18:04:21.148Z,9.44
2022-12-16T18:07:06.851Z,9.45
2022-12-16T18:09:53.245Z,10.03
2022-12-16T18:12:39.242Z,10.44
2022-12-16T18:15:25.574Z,10.18
2022-12-16T18:18:11.282Z,9.74
2022-12-16T18:20:57.502Z,9.57
2022-12-16T18:23:43.183Z,9.57
2022-12-16T18:26:29.306Z,9.80
2022-12-16T18:29:15.082Z,9.82
2022-12-16T18:32:01.393Z,9.98
2022-12-16T18:34:47.264Z,9.87
2022-12-16T18:37:33.567Z,9.87
2022-12-16T18:40:19.235Z,9.33
2022-12-16T18:43:05.494Z,9.52
2022-12-16T18:45:51.261Z,9.79
2022-12-16T18:48:37.424Z,9.82
2022-12-16T18:51:23.283Z,9.96
2022-12-16T18:54:09.622Z,9.90
2022-12-16T18:56:55.399Z,9.72
2022-12-16T18:59:41.657Z,10.03
2022-12-16T19:02:27.673Z,10.15
2022-12-16T19:05:14.127Z,9.96
2022-12-16T19:08:00.267Z,10.26
2022-12-16T19:10:46.258Z,9.96
2022-12-16T19:13:35.273Z,9.31
2022-12-16T19:16:21.585Z,9.82
2022-12-16T19:19:07.252Z,9.57
2022-12-16T19:21:56.297Z,9.82
2022-12-16T19:24:42.766Z,9.86
2022-12-16T19:27:29.062Z,9.92
2022-12-16T19:30:15.108Z,8.95
2022-12-16T19:33:01.450Z,8.79
2022-12-16T19:35:47.222Z,9.01
2022-12-16T19:38:33.519Z,9.50
2022-12-16T19:41:19.743Z,9.80
2022-12-16T19:47:12.902Z,9.49
2022-12-16T19:49:59.223Z,9.14
2022-12-16T19:52:45.051Z,8.96
2022-12-16T19:55:31.462Z,9.24
2022-12-16T19:58:17.337Z,8.89
2022-12-16T20:01:03.586Z,9.29
2022-12-16T20:03:50.380Z,9.15
2022-12-16T20:06:41.609Z,9.59
2022-12-16T20:09:27.620Z,9.65
2022-12-16T20:12:13.264Z,9.37
2022-12-16T20:14:59.634Z,8.06
2022-12-16T20:17:45.657Z,6.84
2022-12-16T20:20:31.489Z,7.80
2022-12-16T20:23:17.199Z,7.80
2022-12-16T20:26:03.733Z,8.10
2022-12-16T20:28:49.539Z,8.44
2022-12-16T20:31:35.886Z,8.27
2022-12-16T20:34:21.938Z,8.63
2022-12-16T20:37:08.450Z,8.62
2022-12-16T20:40:12.100Z,8.73
2022-12-16T20:42:58.135Z,8.29
2022-12-16T20:45:44.084Z,8.63
2022-12-16T20:48:33.994Z,8.14
2022-12-16T20:51:26.205Z,8.14
2022-12-16T20:54:13.199Z,7.82
2022-12-16T20:56:59.061Z,7.46
2022-12-16T20:59:45.607Z,8.40
2022-12-16T21:02:33.823Z,8.45
2022-12-16T21:05:20.499Z,8.75
2022-12-16T21:08:06.562Z,8.76
2022-12-16T21:10:56.219Z,8.86
2022-12-16T21:13:43.261Z,8.82
2022-12-16T21:16:29.613Z,8.01
2022-12-16T21:19:15.494Z,8.00
2022-12-16T21:22:01.578Z,8.09
2022-12-16T21:24:47.394Z,7.87
2022-12-16T21:27:33.805Z,7.81
2022-12-16T21:30:19.903Z,7.94
2022-12-16T21:33:06.437Z,7.31
2022-12-16T21:35:55.907Z,7.89
2022-12-16T21:38:42.316Z,7.72
2022-12-16T21:41:28.167Z,7.70
2022-12-16T21:44:14.243Z,7.33
2022-12-16T21:47:00.260Z,7.35
2022-12-16T21:49:46.379Z,7.33
2022-12-16T21:52:32.883Z,7.66
2022-12-16T21:55:19.120Z,6.23
2022-12-16T21:58:05.134Z,7.03
2022-12-16T22:00:56.196Z,6.72
2022-12-16T22:03:44.928Z,7.15
2022-12-16T22:06:32.324Z,7.45
2022-12-16T22:09:18.332Z,7.41
2022-12-16T22:12:04.010Z,7.17
2022-12-16T22:14:50.321Z,7.08
2022-12-16T22:17:36.400Z,7.99
2022-12-16T22:20:22.841Z,7.74
2022-12-16T22:23:08.641Z,7.22
2022-12-16T22:25:56.092Z,7.57
2022-12-16T22:28:42.134Z,7.79
2022-12-16T22:31:45.173Z,7.31
2022-12-16T22:34:30.893Z,7.69
2022-12-16T22:37:17.054Z,7.36
2022-12-16T22:40:02.659Z,7.49
2022-12-16T22:42:48.901Z,7.44
2022-12-16T22:45:34.506Z,7.96
2022-12-16T22:48:20.820Z,7.32
2022-12-16T22:51:06.441Z,7.58
2022-12-16T22:53:52.689Z,7.54
2022-12-16T22:56:39.322Z,7.08
2022-12-16T22:59:25.690Z,7.20
2022-12-16T23:02:11.553Z,7.65
2022-12-16T23:04:57.681Z,7.67
2022-12-16T23:07:43.343Z,7.68
2022-12-16T23:10:29.269Z,7.05
2022-12-16T23:13:31.772Z,7.53
2022-12-16T23:16:22.555Z,6.54
2022-12-16T23:19:08.371Z,7.19
2022-12-16T23:21:56.494Z,7.21
2022-12-16T23:24:42.680Z,6.84
2022-12-16T23:27:29.043Z,7.50
2022-12-16T23:30:14.821Z,6.54
2022-12-16T23:33:01.044Z,6.96
2022-12-16T23:35:46.697Z,7.08
2022-12-16T23:38:32.666Z,6.67
2022-12-16T23:41:18.389Z,6.75
2022-12-16T23:44:05.070Z,6.15
2022-12-16T23:46:50.980Z,6.59
2022-12-16T23:49:39.762Z,6.90
2022-12-16T23:52:25.672Z,6.28
2022-12-16T23:55:12.094Z,5.45
2022-12-16T23:57:57.930Z,6.13
